Terminal Aerodrome Forecast
Issued by NWS

Home | Current Version | Previous Version | Text Only | Print | Product List | Glossary On
Versions: 1 2 3 4 5 6 7 8 9 10 11 12 13 14 15
000
FTUS43 KPAH 140600 AAA
TAFCGI
TAF AMD
KCGI 140632Z 1407/1506 21005KT 4SM -TSRA BR BKN040CB
     FM140900 22003KT P6SM OVC045
     FM141300 30005KT P6SM BKN030
     FM142300 35007KT P6SM -SHRA BKN050=

USA.gov is the U.S. government's official web portal to all federal, state and local government web resources and services.